Terminal Aerodrome Forecast
Issued by NWS

Home | Current Version | Previous Version | Text Only | Print | Product List | Glossary On
Versions: 1 2 3 4 5 6 7 8 9 10 11 12 13 14 15 16 17 18 19 20 21 22 23 24 25 26 27 28
000
FTUS45 KCYS 282300
TAFLAR
TAF
KLAR 282337Z 2900/2924 12010G20KT P6SM VCTS BKN060CB
     FM290300 16008KT P6SM BKN080
     FM291000 18008KT 3SM BR BKN035
     FM291500 08009KT P6SM BKN050
     FM291900 08012KT 4SM -SHRA OVC050
      TEMPO 2920/2924 3SM TSRA OVC025CB=

USA.gov is the U.S. government's official web portal to all federal, state and local government web resources and services.